sensor_id;sensor_type;location;lat;lon;timestamp;temperature;humidity
16999;DHT22;10211;49.476;11.010;2023-05-29T00:00:42;13.70;88.90
16999;DHT22;10211;49.476;11.010;2023-05-29T00:03:09;13.70;89.80
16999;DHT22;10211;49.476;11.010;2023-05-29T00:05:36;13.60;90.00
16999;DHT22;10211;49.476;11.010;2023-05-29T00:08:04;13.60;90.10
16999;DHT22;10211;49.476;11.010;2023-05-29T00:10:32;13.50;90.60
16999;DHT22;10211;49.476;11.010;2023-05-29T00:12:58;13.50;90.60
16999;DHT22;10211;49.476;11.010;2023-05-29T00:15:27;13.40;90.70
16999;DHT22;10211;49.476;11.010;2023-05-29T00:17:53;13.40;91.00
16999;DHT22;10211;49.476;11.010;2023-05-29T00:20:20;13.40;91.20
16999;DHT22;10211;49.476;11.010;2023-05-29T00:22:47;13.30;91.40
16999;DHT22;10211;49.476;11.010;2023-05-29T00:25:14;13.30;91.70
16999;DHT22;10211;49.476;11.010;2023-05-29T00:27:43;13.20;92.00
16999;DHT22;10211;49.476;11.010;2023-05-29T00:30:10;13.20;92.40
16999;DHT22;10211;49.476;11.010;2023-05-29T00:32:37;13.10;92.50
16999;DHT22;10211;49.476;11.010;2023-05-29T00:35:04;13.00;92.80
16999;DHT22;10211;49.476;11.010;2023-05-29T00:37:31;13.00;93.00
16999;DHT22;10211;49.476;11.010;2023-05-29T00:39:57;13.00;93.40
16999;DHT22;10211;49.476;11.010;2023-05-29T00:42:24;12.90;93.70
16999;DHT22;10211;49.476;11.010;2023-05-29T00:44:52;12.90;94.10
16999;DHT22;10211;49.476;11.010;2023-05-29T00:47:19;12.80;94.40
16999;DHT22;10211;49.476;11.010;2023-05-29T00:49:46;12.80;94.70
16999;DHT22;10211;49.476;11.010;2023-05-29T00:52:13;12.70;95.10
16999;DHT22;10211;49.476;11.010;2023-05-29T00:54:44;12.70;95.40
16999;DHT22;10211;49.476;11.010;2023-05-29T00:57:13;12.70;95.80
16999;DHT22;10211;49.476;11.010;2023-05-29T00:59:40;12.60;96.10
16999;DHT22;10211;49.476;11.010;2023-05-29T01:02:09;12.60;96.30
16999;DHT22;10211;49.476;11.010;2023-05-29T01:04:35;12.60;96.70
16999;DHT22;10211;49.476;11.010;2023-05-29T01:07:03;12.50;97.20
16999;DHT22;10211;49.476;11.010;2023-05-29T01:09:31;12.50;97.60
16999;DHT22;10211;49.476;11.010;2023-05-29T01:12:07;12.50;98.30
16999;DHT22;10211;49.476;11.010;2023-05-29T01:14:42;12.40;98.60
16999;DHT22;10211;49.476;11.010;2023-05-29T01:17:26;12.40;99.10
16999;DHT22;10211;49.476;11.010;2023-05-29T01:20:06;12.30;99.60
16999;DHT22;10211;49.476;11.010;2023-05-29T01:22:45;12.30;99.80
16999;DHT22;10211;49.476;11.010;2023-05-29T01:25:19;12.30;99.90
16999;DHT22;10211;49.476;11.010;2023-05-29T01:27:49;12.20;99.90
16999;DHT22;10211;49.476;11.010;2023-05-29T01:30:18;12.20;99.90
16999;DHT22;10211;49.476;11.010;2023-05-29T01:32:47;12.20;99.90
16999;DHT22;10211;49.476;11.010;2023-05-29T01:35:13;12.20;99.90
16999;DHT22;10211;49.476;11.010;2023-05-29T01:37:40;12.20;99.90
16999;DHT22;10211;49.476;11.010;2023-05-29T01:40:08;12.10;99.90
16999;DHT22;10211;49.476;11.010;2023-05-29T01:42:35;12.10;99.90
16999;DHT22;10211;49.476;11.010;2023-05-29T01:45:05;12.10;99.90
16999;DHT22;10211;49.476;11.010;2023-05-29T01:47:32;12.00;99.90
16999;DHT22;10211;49.476;11.010;2023-05-29T01:49:59;12.00;99.90
16999;DHT22;10211;49.476;11.010;2023-05-29T01:52:26;12.00;99.90
16999;DHT22;10211;49.476;11.010;2023-05-29T01:54:53;12.00;99.90
16999;DHT22;10211;49.476;11.010;2023-05-29T01:57:21;11.90;99.90
16999;DHT22;10211;49.476;11.010;2023-05-29T01:59:48;11.90;99.90
16999;DHT22;10211;49.476;11.010;2023-05-29T02:02:16;11.90;99.90
16999;DHT22;10211;49.476;11.010;2023-05-29T02:04:43;11.90;99.90
16999;DHT22;10211;49.476;11.010;2023-05-29T02:07:10;11.80;99.90
16999;DHT22;10211;49.476;11.010;2023-05-29T02:09:37;11.80;99.90
16999;DHT22;10211;49.476;11.010;2023-05-29T02:12:04;11.80;99.90
16999;DHT22;10211;49.476;11.010;2023-05-29T02:14:32;11.70;99.90
16999;DHT22;10211;49.476;11.010;2023-05-29T02:16:59;11.70;99.90
16999;DHT22;10211;49.476;11.010;2023-05-29T02:19:28;11.70;99.90
16999;DHT22;10211;49.476;11.010;2023-05-29T02:21:55;11.70;99.90
16999;DHT22;10211;49.476;11.010;2023-05-29T02:24:22;11.70;99.90
16999;DHT22;10211;49.476;11.010;2023-05-29T02:26:48;11.60;99.90
16999;DHT22;10211;49.476;11.010;2023-05-29T02:29:16;11.60;99.90
16999;DHT22;10211;49.476;11.010;2023-05-29T02:31:42;11.60;99.90
16999;DHT22;10211;49.476;11.010;2023-05-29T02:34:09;11.60;99.90
16999;DHT22;10211;49.476;11.010;2023-05-29T02:36:37;11.50;99.90
16999;DHT22;10211;49.476;11.010;2023-05-29T02:39:04;11.50;99.90
16999;DHT22;10211;49.476;11.010;2023-05-29T02:41:31;11.50;99.90
16999;DHT22;10211;49.476;11.010;2023-05-29T02:43:58;11.50;99.90
16999;DHT22;10211;49.476;11.010;2023-05-29T02:46:27;11.50;99.90
16999;DHT22;10211;49.476;11.010;2023-05-29T02:48:53;11.50;99.90
16999;DHT22;10211;49.476;11.010;2023-05-29T02:51:21;11.40;99.90
16999;DHT22;10211;49.476;11.010;2023-05-29T02:53:49;11.40;99.90
16999;DHT22;10211;49.476;11.010;2023-05-29T02:56:16;11.40;99.90
16999;DHT22;10211;49.476;11.010;2023-05-29T02:58:42;11.30;99.90
16999;DHT22;10211;49.476;11.010;2023-05-29T03:01:11;11.30;99.90
16999;DHT22;10211;49.476;11.010;2023-05-29T03:03:38;11.20;99.90
16999;DHT22;10211;49.476;11.010;2023-05-29T03:06:05;11.20;99.90
16999;DHT22;10211;49.476;11.010;2023-05-29T03:08:31;11.20;99.90
16999;DHT22;10211;49.476;11.010;2023-05-29T03:11:00;11.20;99.90
16999;DHT22;10211;49.476;11.010;2023-05-29T03:13:28;11.10;99.90
16999;DHT22;10211;49.476;11.010;2023-05-29T03:15:54;11.10;99.90
16999;DHT22;10211;49.476;11.010;2023-05-29T03:18:22;11.10;99.90
16999;DHT22;10211;49.476;11.010;2023-05-29T03:20:49;11.10;99.90
16999;DHT22;10211;49.476;11.010;2023-05-29T03:23:15;11.00;99.90
16999;DHT22;10211;49.476;11.010;2023-05-29T03:25:42;11.00;99.90
16999;DHT22;10211;49.476;11.010;2023-05-29T03:28:10;11.00;99.90
16999;DHT22;10211;49.476;11.010;2023-05-29T03:30:37;11.00;99.90
16999;DHT22;10211;49.476;11.010;2023-05-29T03:33:03;11.00;99.90
16999;DHT22;10211;49.476;11.010;2023-05-29T03:35:31;11.00;99.90
16999;DHT22;10211;49.476;11.010;2023-05-29T03:37:57;10.90;99.90
16999;DHT22;10211;49.476;11.010;2023-05-29T03:40:24;10.90;99.90
16999;DHT22;10211;49.476;11.010;2023-05-29T03:42:51;10.90;99.90
16999;DHT22;10211;49.476;11.010;2023-05-29T03:45:19;10.90;99.90
16999;DHT22;10211;49.476;11.010;2023-05-29T03:47:45;10.90;99.90
16999;DHT22;10211;49.476;11.010;2023-05-29T03:50:12;10.90;99.90
16999;DHT22;10211;49.476;11.010;2023-05-29T03:52:40;10.90;99.90
16999;DHT22;10211;49.476;11.010;2023-05-29T03:55:09;10.90;99.90
16999;DHT22;10211;49.476;11.010;2023-05-29T03:57:38;10.90;99.90
16999;DHT22;10211;49.476;11.010;2023-05-29T04:00:07;10.90;99.90
16999;DHT22;10211;49.476;11.010;2023-05-29T04:02:36;10.90;99.90
16999;DHT22;10211;49.476;11.010;2023-05-29T04:05:04;10.90;99.90
16999;DHT22;10211;49.476;11.010;2023-05-29T04:07:31;10.90;99.90
16999;DHT22;10211;49.476;11.010;2023-05-29T04:09:58;11.00;99.90
16999;DHT22;10211;49.476;11.010;2023-05-29T04:12:25;11.00;99.90
16999;DHT22;10211;49.476;11.010;2023-05-29T04:14:52;11.00;99.90
16999;DHT22;10211;49.476;11.010;2023-05-29T04:17:18;11.00;99.90
16999;DHT22;10211;49.476;11.010;2023-05-29T04:19:46;11.10;99.90
16999;DHT22;10211;49.476;11.010;2023-05-29T04:22:13;11.10;99.90
16999;DHT22;10211;49.476;11.010;2023-05-29T04:24:40;11.20;99.90
16999;DHT22;10211;49.476;11.010;2023-05-29T04:27:07;11.20;99.90
16999;DHT22;10211;49.476;11.010;2023-05-29T04:29:34;11.30;99.90
16999;DHT22;10211;49.476;11.010;2023-05-29T04:32:01;11.30;99.90
16999;DHT22;10211;49.476;11.010;2023-05-29T04:34:29;11.40;99.90
16999;DHT22;10211;49.476;11.010;2023-05-29T04:36:58;11.50;99.90
16999;DHT22;10211;49.476;11.010;2023-05-29T04:39:24;11.50;99.90
16999;DHT22;10211;49.476;11.010;2023-05-29T04:41:51;11.60;99.90
16999;DHT22;10211;49.476;11.010;2023-05-29T04:44:18;11.70;99.90
16999;DHT22;10211;49.476;11.010;2023-05-29T04:46:44;11.90;99.90
16999;DHT22;10211;49.476;11.010;2023-05-29T04:49:12;12.00;99.90
16999;DHT22;10211;49.476;11.010;2023-05-29T04:51:39;12.10;99.90
16999;DHT22;10211;49.476;11.010;2023-05-29T04:54:07;12.20;99.90
16999;DHT22;10211;49.476;11.010;2023-05-29T04:56:34;12.20;99.90
16999;DHT22;10211;49.476;11.010;2023-05-29T04:59:02;12.30;99.90
16999;DHT22;10211;49.476;11.010;2023-05-29T05:01:29;12.40;99.90
16999;DHT22;10211;49.476;11.010;2023-05-29T05:03:58;12.50;99.90
16999;DHT22;10211;49.476;11.010;2023-05-29T05:06:25;12.60;99.90
16999;DHT22;10211;49.476;11.010;2023-05-29T05:08:52;12.60;99.90
16999;DHT22;10211;49.476;11.010;2023-05-29T05:11:22;12.70;99.90
16999;DHT22;10211;49.476;11.010;2023-05-29T05:13:49;12.80;99.90
16999;DHT22;10211;49.476;11.010;2023-05-29T05:16:16;12.90;99.90
16999;DHT22;10211;49.476;11.010;2023-05-29T05:18:44;13.10;99.90
16999;DHT22;10211;49.476;11.010;2023-05-29T05:21:10;13.20;99.90
16999;DHT22;10211;49.476;11.010;2023-05-29T05:23:37;13.30;99.90
16999;DHT22;10211;49.476;11.010;2023-05-29T05:26:04;14.10;99.90
16999;DHT22;10211;49.476;11.010;2023-05-29T05:28:32;14.80;99.90
16999;DHT22;10211;49.476;11.010;2023-05-29T05:30:59;15.10;99.90
16999;DHT22;10211;49.476;11.010;2023-05-29T05:33:27;15.20;99.90
16999;DHT22;10211;49.476;11.010;2023-05-29T05:35:53;15.40;99.90
16999;DHT22;10211;49.476;11.010;2023-05-29T05:38:20;15.60;99.90
16999;DHT22;10211;49.476;11.010;2023-05-29T05:40:47;15.90;99.90
16999;DHT22;10211;49.476;11.010;2023-05-29T05:43:13;16.80;99.00
16999;DHT22;10211;49.476;11.010;2023-05-29T05:45:42;18.00;97.00
16999;DHT22;10211;49.476;11.010;2023-05-29T05:48:08;18.80;94.30
16999;DHT22;10211;49.476;11.010;2023-05-29T05:50:35;19.20;92.10
16999;DHT22;10211;49.476;11.010;2023-05-29T05:53:02;19.70;90.40
16999;DHT22;10211;49.476;11.010;2023-05-29T05:55:28;20.20;86.00
16999;DHT22;10211;49.476;11.010;2023-05-29T05:57:55;20.10;84.60
16999;DHT22;10211;49.476;11.010;2023-05-29T06:00:22;19.80;84.40
16999;DHT22;10211;49.476;11.010;2023-05-29T06:02:50;19.70;84.60
16999;DHT22;10211;49.476;11.010;2023-05-29T06:05:17;19.40;84.50
16999;DHT22;10211;49.476;11.010;2023-05-29T06:07:44;19.20;83.30
16999;DHT22;10211;49.476;11.010;2023-05-29T06:10:11;19.40;83.40
16999;DHT22;10211;49.476;11.010;2023-05-29T06:12:38;20.60;79.30
16999;DHT22;10211;49.476;11.010;2023-05-29T06:15:06;21.60;76.50
16999;DHT22;10211;49.476;11.010;2023-05-29T06:17:33;21.90;75.80
16999;DHT22;10211;49.476;11.010;2023-05-29T06:20:02;21.70;73.50
16999;DHT22;10211;49.476;11.010;2023-05-29T06:22:31;21.20;73.60
16999;DHT22;10211;49.476;11.010;2023-05-29T06:24:58;20.50;73.20
16999;DHT22;10211;49.476;11.010;2023-05-29T06:27:24;20.00;75.10
16999;DHT22;10211;49.476;11.010;2023-05-29T06:29:51;19.60;76.20
16999;DHT22;10211;49.476;11.010;2023-05-29T06:32:18;19.20;77.50
16999;DHT22;10211;49.476;11.010;2023-05-29T06:34:44;18.90;78.40
16999;DHT22;10211;49.476;11.010;2023-05-29T06:37:12;18.60;79.30
16999;DHT22;10211;49.476;11.010;2023-05-29T06:39:39;18.50;81.30
16999;DHT22;10211;49.476;11.010;2023-05-29T06:42:07;18.30;83.10
16999;DHT22;10211;49.476;11.010;2023-05-29T06:44:34;18.10;83.00
16999;DHT22;10211;49.476;11.010;2023-05-29T06:47:01;18.00;82.90
16999;DHT22;10211;49.476;11.010;2023-05-29T06:49:27;18.10;84.20
16999;DHT22;10211;49.476;11.010;2023-05-29T06:51:54;18.20;82.50
16999;DHT22;10211;49.476;11.010;2023-05-29T06:54:22;18.30;82.60
16999;DHT22;10211;49.476;11.010;2023-05-29T06:56:49;18.30;83.10
16999;DHT22;10211;49.476;11.010;2023-05-29T06:59:16;18.40;83.50
16999;DHT22;10211;49.476;11.010;2023-05-29T07:01:42;18.40;83.20
16999;DHT22;10211;49.476;11.010;2023-05-29T07:04:10;18.50;82.50
16999;DHT22;10211;49.476;11.010;2023-05-29T07:06:37;18.80;81.00
16999;DHT22;10211;49.476;11.010;2023-05-29T07:09:04;19.40;79.90
16999;DHT22;10211;49.476;11.010;2023-05-29T07:11:32;19.70;78.90
16999;DHT22;10211;49.476;11.010;2023-05-29T07:13:58;19.60;79.00
16999;DHT22;10211;49.476;11.010;2023-05-29T07:16:25;19.60;80.00
16999;DHT22;10211;49.476;11.010;2023-05-29T07:18:52;19.50;80.00
16999;DHT22;10211;49.476;11.010;2023-05-29T07:21:18;19.60;80.00
16999;DHT22;10211;49.476;11.010;2023-05-29T07:23:45;19.70;79.80
16999;DHT22;10211;49.476;11.010;2023-05-29T07:26:12;19.80;79.60
16999;DHT22;10211;49.476;11.010;2023-05-29T07:28:40;19.80;80.40
16999;DHT22;10211;49.476;11.010;2023-05-29T07:31:06;19.70;79.00
16999;DHT22;10211;49.476;11.010;2023-05-29T07:33:34;19.80;79.50
16999;DHT22;10211;49.476;11.010;2023-05-29T07:36:01;20.00;80.20
16999;DHT22;10211;49.476;11.010;2023-05-29T07:38:27;20.20;77.30
16999;DHT22;10211;49.476;11.010;2023-05-29T07:40:54;20.70;76.20
16999;DHT22;10211;49.476;11.010;2023-05-29T07:43:21;20.80;76.60
16999;DHT22;10211;49.476;11.010;2023-05-29T07:45:49;21.30;73.80
16999;DHT22;10211;49.476;11.010;2023-05-29T07:48:15;21.60;72.30
16999;DHT22;10211;49.476;11.010;2023-05-29T07:50:42;21.70;73.00
16999;DHT22;10211;49.476;11.010;2023-05-29T07:53:09;21.80;71.00
16999;DHT22;10211;49.476;11.010;2023-05-29T07:55:36;21.80;70.10
16999;DHT22;10211;49.476;11.010;2023-05-29T07:58:02;21.70;68.30
16999;DHT22;10211;49.476;11.010;2023-05-29T08:00:29;21.60;68.60
16999;DHT22;10211;49.476;11.010;2023-05-29T08:02:57;21.50;69.10
16999;DHT22;10211;49.476;11.010;2023-05-29T08:05:24;21.40;70.10
16999;DHT22;10211;49.476;11.010;2023-05-29T08:07:51;21.40;69.10
16999;DHT22;10211;49.476;11.010;2023-05-29T08:10:17;21.40;69.80
16999;DHT22;10211;49.476;11.010;2023-05-29T08:12:44;21.40;68.20
16999;DHT22;10211;49.476;11.010;2023-05-29T08:15:12;21.40;66.40
16999;DHT22;10211;49.476;11.010;2023-05-29T08:17:38;21.40;65.30
16999;DHT22;10211;49.476;11.010;2023-05-29T08:20:07;21.50;65.60
16999;DHT22;10211;49.476;11.010;2023-05-29T08:22:35;21.70;62.40
16999;DHT22;10211;49.476;11.010;2023-05-29T08:25:02;21.70;61.90
16999;DHT22;10211;49.476;11.010;2023-05-29T08:27:29;21.80;62.00
16999;DHT22;10211;49.476;11.010;2023-05-29T08:29:56;21.90;62.30
16999;DHT22;10211;49.476;11.010;2023-05-29T08:32:22;22.10;62.40
16999;DHT22;10211;49.476;11.010;2023-05-29T08:34:49;22.20;60.20
16999;DHT22;10211;49.476;11.010;2023-05-29T08:37:17;22.20;60.00
16999;DHT22;10211;49.476;11.010;2023-05-29T08:39:45;22.20;61.50
16999;DHT22;10211;49.476;11.010;2023-05-29T08:42:13;22.20;60.00
16999;DHT22;10211;49.476;11.010;2023-05-29T08:44:47;22.20;61.00
16999;DHT22;10211;49.476;11.010;2023-05-29T08:47:15;22.20;60.00
16999;DHT22;10211;49.476;11.010;2023-05-29T08:49:53;22.20;60.10
16999;DHT22;10211;49.476;11.010;2023-05-29T08:52:23;22.40;61.20
16999;DHT22;10211;49.476;11.010;2023-05-29T08:54:50;22.50;61.10
16999;DHT22;10211;49.476;11.010;2023-05-29T08:57:17;22.60;60.80
16999;DHT22;10211;49.476;11.010;2023-05-29T08:59:45;22.70;61.10
16999;DHT22;10211;49.476;11.010;2023-05-29T09:02:14;22.90;59.70
16999;DHT22;10211;49.476;11.010;2023-05-29T09:04:41;22.90;59.70
16999;DHT22;10211;49.476;11.010;2023-05-29T09:07:10;22.90;59.60
16999;DHT22;10211;49.476;11.010;2023-05-29T09:09:39;22.90;57.80
16999;DHT22;10211;49.476;11.010;2023-05-29T09:12:06;23.00;57.20
16999;DHT22;10211;49.476;11.010;2023-05-29T09:14:34;22.90;58.00
16999;DHT22;10211;49.476;11.010;2023-05-29T09:17:02;22.90;55.70
16999;DHT22;10211;49.476;11.010;2023-05-29T09:19:29;23.00;55.00
16999;DHT22;10211;49.476;11.010;2023-05-29T09:22:07;23.00;55.80
16999;DHT22;10211;49.476;11.010;2023-05-29T09:24:36;23.20;56.30
16999;DHT22;10211;49.476;11.010;2023-05-29T09:27:05;23.30;57.10
16999;DHT22;10211;49.476;11.010;2023-05-29T09:29:33;23.50;57.50
16999;DHT22;10211;49.476;11.010;2023-05-29T09:32:00;23.60;56.50
16999;DHT22;10211;49.476;11.010;2023-05-29T09:34:30;23.80;56.00
16999;DHT22;10211;49.476;11.010;2023-05-29T09:37:01;23.90;55.50
16999;DHT22;10211;49.476;11.010;2023-05-29T09:39:33;24.30;55.50
16999;DHT22;10211;49.476;11.010;2023-05-29T09:42:00;25.70;54.00
16999;DHT22;10211;49.476;11.010;2023-05-29T09:44:28;28.30;50.50
16999;DHT22;10211;49.476;11.010;2023-05-29T09:46:58;31.10;45.60
16999;DHT22;10211;49.476;11.010;2023-05-29T09:49:25;33.90;41.20
16999;DHT22;10211;49.476;11.010;2023-05-29T09:51:53;36.00;38.70
16999;DHT22;10211;49.476;11.010;2023-05-29T09:54:20;38.50;36.00
16999;DHT22;10211;49.476;11.010;2023-05-29T09:56:47;40.30;32.70
16999;DHT22;10211;49.476;11.010;2023-05-29T09:59:15;42.50;30.00
16999;DHT22;10211;49.476;11.010;2023-05-29T10:01:44;44.00;29.40
16999;DHT22;10211;49.476;11.010;2023-05-29T10:04:11;45.70;28.80
16999;DHT22;10211;49.476;11.010;2023-05-29T10:06:42;46.80;27.70
16999;DHT22;10211;49.476;11.010;2023-05-29T10:09:12;47.60;27.70
16999;DHT22;10211;49.476;11.010;2023-05-29T10:11:42;48.50;27.40
16999;DHT22;10211;49.476;11.010;2023-05-29T10:14:13;48.90;27.30
16999;DHT22;10211;49.476;11.010;2023-05-29T10:16:45;48.50;26.20
16999;DHT22;10211;49.476;11.010;2023-05-29T10:19:17;48.60;26.30
16999;DHT22;10211;49.476;11.010;2023-05-29T10:21:48;48.40;26.60
16999;DHT22;10211;49.476;11.010;2023-05-29T10:24:15;47.60;26.80
16999;DHT22;10211;49.476;11.010;2023-05-29T10:26:46;47.50;26.60
16999;DHT22;10211;49.476;11.010;2023-05-29T10:29:19;47.70;26.90
16999;DHT22;10211;49.476;11.010;2023-05-29T10:32:09;48.20;26.30
16999;DHT22;10211;49.476;11.010;2023-05-29T10:34:43;48.60;26.20
16999;DHT22;10211;49.476;11.010;2023-05-29T10:37:21;48.80;26.10
16999;DHT22;10211;49.476;11.010;2023-05-29T10:39:50;49.10;25.90
16999;DHT22;10211;49.476;11.010;2023-05-29T10:42:40;49.40;25.80
16999;DHT22;10211;49.476;11.010;2023-05-29T10:45:08;50.10;26.00
16999;DHT22;10211;49.476;11.010;2023-05-29T10:47:36;49.80;25.70
16999;DHT22;10211;49.476;11.010;2023-05-29T10:50:03;50.20;24.80
16999;DHT22;10211;49.476;11.010;2023-05-29T10:52:31;50.50;25.10
16999;DHT22;10211;49.476;11.010;2023-05-29T10:54:58;51.10;24.50
16999;DHT22;10211;49.476;11.010;2023-05-29T10:57:25;51.20;24.40
16999;DHT22;10211;49.476;11.010;2023-05-29T10:59:59;51.00;24.40
16999;DHT22;10211;49.476;11.010;2023-05-29T11:02:27;50.30;24.60
16999;DHT22;10211;49.476;11.010;2023-05-29T11:05:23;50.30;24.80
16999;DHT22;10211;49.476;11.010;2023-05-29T11:07:52;50.70;24.90
16999;DHT22;10211;49.476;11.010;2023-05-29T11:10:55;50.80;24.50
16999;DHT22;10211;49.476;11.010;2023-05-29T11:13:26;50.50;24.80
16999;DHT22;10211;49.476;11.010;2023-05-29T11:16:11;50.30;25.00
16999;DHT22;10211;49.476;11.010;2023-05-29T11:18:40;50.00;24.80
16999;DHT22;10211;49.476;11.010;2023-05-29T11:21:22;49.70;24.90
16999;DHT22;10211;49.476;11.010;2023-05-29T11:23:51;50.20;24.60
16999;DHT22;10211;49.476;11.010;2023-05-29T11:26:19;50.50;24.80
16999;DHT22;10211;49.476;11.010;2023-05-29T11:28:46;50.00;24.70
16999;DHT22;10211;49.476;11.010;2023-05-29T11:31:15;49.90;24.30
16999;DHT22;10211;49.476;11.010;2023-05-29T11:33:47;48.90;24.90
16999;DHT22;10211;49.476;11.010;2023-05-29T11:36:17;48.50;24.60
16999;DHT22;10211;49.476;11.010;2023-05-29T11:38:45;48.60;25.20
16999;DHT22;10211;49.476;11.010;2023-05-29T11:41:12;48.70;25.20
16999;DHT22;10211;49.476;11.010;2023-05-29T11:43:39;49.10;25.20
16999;DHT22;10211;49.476;11.010;2023-05-29T11:46:16;48.80;24.80
16999;DHT22;10211;49.476;11.010;2023-05-29T11:48:46;48.10;25.30
16999;DHT22;10211;49.476;11.010;2023-05-29T11:51:13;47.70;25.60
16999;DHT22;10211;49.476;11.010;2023-05-29T11:53:42;47.20;25.10
16999;DHT22;10211;49.476;11.010;2023-05-29T11:56:10;47.10;25.90
16999;DHT22;10211;49.476;11.010;2023-05-29T11:58:37;46.90;25.70
16999;DHT22;10211;49.476;11.010;2023-05-29T12:01:04;46.70;25.80
16999;DHT22;10211;49.476;11.010;2023-05-29T12:03:36;46.60;25.80
16999;DHT22;10211;49.476;11.010;2023-05-29T12:06:03;46.30;25.80
16999;DHT22;10211;49.476;11.010;2023-05-29T12:08:31;45.80;25.90
16999;DHT22;10211;49.476;11.010;2023-05-29T12:11:00;45.00;26.00
16999;DHT22;10211;49.476;11.010;2023-05-29T12:13:26;44.10;26.20
16999;DHT22;10211;49.476;11.010;2023-05-29T12:15:56;43.50;26.20
16999;DHT22;10211;49.476;11.010;2023-05-29T12:18:23;43.10;26.80
16999;DHT22;10211;49.476;11.010;2023-05-29T12:20:50;42.40;26.60
16999;DHT22;10211;49.476;11.010;2023-05-29T12:23:18;41.80;27.40
16999;DHT22;10211;49.476;11.010;2023-05-29T12:25:46;41.10;26.90
16999;DHT22;10211;49.476;11.010;2023-05-29T12:28:17;40.20;27.40
16999;DHT22;10211;49.476;11.010;2023-05-29T12:30:45;40.10;28.00
16999;DHT22;10211;49.476;11.010;2023-05-29T12:33:25;40.00;27.70
16999;DHT22;10211;49.476;11.010;2023-05-29T12:35:53;39.80;27.70
16999;DHT22;10211;49.476;11.010;2023-05-29T12:38:22;39.60;28.30
16999;DHT22;10211;49.476;11.010;2023-05-29T12:40:49;39.50;28.10
16999;DHT22;10211;49.476;11.010;2023-05-29T12:43:19;39.40;28.30
16999;DHT22;10211;49.476;11.010;2023-05-29T12:45:45;39.30;29.10
16999;DHT22;10211;49.476;11.010;2023-05-29T12:48:12;38.90;29.50
16999;DHT22;10211;49.476;11.010;2023-05-29T12:50:39;38.60;29.60
16999;DHT22;10211;49.476;11.010;2023-05-29T12:53:07;38.10;28.60
16999;DHT22;10211;49.476;11.010;2023-05-29T12:55:35;37.70;29.60
16999;DHT22;10211;49.476;11.010;2023-05-29T12:58:04;36.90;30.60
16999;DHT22;10211;49.476;11.010;2023-05-29T13:00:34;36.00;31.50
16999;DHT22;10211;49.476;11.010;2023-05-29T13:03:01;34.90;32.40
16999;DHT22;10211;49.476;11.010;2023-05-29T13:05:28;33.70;32.80
16999;DHT22;10211;49.476;11.010;2023-05-29T13:07:54;32.80;34.30
16999;DHT22;10211;49.476;11.010;2023-05-29T13:10:21;31.90;34.30
16999;DHT22;10211;49.476;11.010;2023-05-29T13:12:49;31.20;34.00
16999;DHT22;10211;49.476;11.010;2023-05-29T13:15:20;30.80;35.30
16999;DHT22;10211;49.476;11.010;2023-05-29T13:17:48;30.40;35.70
16999;DHT22;10211;49.476;11.010;2023-05-29T13:20:15;30.10;35.70
16999;DHT22;10211;49.476;11.010;2023-05-29T13:22:44;29.90;35.80
16999;DHT22;10211;49.476;11.010;2023-05-29T13:25:12;29.80;36.30
16999;DHT22;10211;49.476;11.010;2023-05-29T13:27:40;29.70;38.40
16999;DHT22;10211;49.476;11.010;2023-05-29T13:30:08;29.60;38.20
16999;DHT22;10211;49.476;11.010;2023-05-29T13:32:36;29.60;36.90
16999;DHT22;10211;49.476;11.010;2023-05-29T13:35:04;29.70;36.80
16999;DHT22;10211;49.476;11.010;2023-05-29T13:37:31;29.60;37.10
16999;DHT22;10211;49.476;11.010;2023-05-29T13:39:58;29.50;36.70
16999;DHT22;10211;49.476;11.010;2023-05-29T13:42:25;29.60;37.10
16999;DHT22;10211;49.476;11.010;2023-05-29T13:44:52;29.50;36.60
16999;DHT22;10211;49.476;11.010;2023-05-29T13:47:19;29.40;36.40
16999;DHT22;10211;49.476;11.010;2023-05-29T13:49:45;29.40;37.20
16999;DHT22;10211;49.476;11.010;2023-05-29T13:52:13;29.40;38.10
16999;DHT22;10211;49.476;11.010;2023-05-29T13:54:42;29.60;37.10
16999;DHT22;10211;49.476;11.010;2023-05-29T13:57:08;29.70;37.10
16999;DHT22;10211;49.476;11.010;2023-05-29T13:59:35;29.70;36.90
16999;DHT22;10211;49.476;11.010;2023-05-29T14:02:02;29.70;36.70
16999;DHT22;10211;49.476;11.010;2023-05-29T14:04:29;29.70;36.70
16999;DHT22;10211;49.476;11.010;2023-05-29T14:06:56;29.70;36.70
16999;DHT22;10211;49.476;11.010;2023-05-29T14:09:25;29.70;37.10
16999;DHT22;10211;49.476;11.010;2023-05-29T14:11:55;29.60;35.20
16999;DHT22;10211;49.476;11.010;2023-05-29T14:14:22;29.40;35.90
16999;DHT22;10211;49.476;11.010;2023-05-29T14:16:49;29.30;36.40
16999;DHT22;10211;49.476;11.010;2023-05-29T14:19:17;29.30;37.90
16999;DHT22;10211;49.476;11.010;2023-05-29T14:21:44;29.40;38.70
16999;DHT22;10211;49.476;11.010;2023-05-29T14:24:11;29.40;39.00
16999;DHT22;10211;49.476;11.010;2023-05-29T14:26:39;29.50;38.10
16999;DHT22;10211;49.476;11.010;2023-05-29T14:29:08;29.50;38.20
16999;DHT22;10211;49.476;11.010;2023-05-29T14:31:35;29.40;39.00
16999;DHT22;10211;49.476;11.010;2023-05-29T14:34:01;29.30;39.00
16999;DHT22;10211;49.476;11.010;2023-05-29T14:36:28;29.30;39.60
16999;DHT22;10211;49.476;11.010;2023-05-29T14:38:55;29.30;39.50
16999;DHT22;10211;49.476;11.010;2023-05-29T14:41:21;29.20;39.50
16999;DHT22;10211;49.476;11.010;2023-05-29T14:43:51;29.20;39.30
16999;DHT22;10211;49.476;11.010;2023-05-29T14:46:18;29.30;39.70
16999;DHT22;10211;49.476;11.010;2023-05-29T14:48:44;29.20;39.00
16999;DHT22;10211;49.476;11.010;2023-05-29T14:51:14;29.10;38.40
16999;DHT22;10211;49.476;11.010;2023-05-29T14:53:43;29.10;39.10
16999;DHT22;10211;49.476;11.010;2023-05-29T14:56:09;29.10;39.10
16999;DHT22;10211;49.476;11.010;2023-05-29T14:58:36;29.10;39.20
16999;DHT22;10211;49.476;11.010;2023-05-29T15:01:04;29.10;38.40
16999;DHT22;10211;49.476;11.010;2023-05-29T15:03:31;29.00;38.10
16999;DHT22;10211;49.476;11.010;2023-05-29T15:05:58;29.00;39.10
16999;DHT22;10211;49.476;11.010;2023-05-29T15:08:24;29.00;39.40
16999;DHT22;10211;49.476;11.010;2023-05-29T15:10:52;28.90;39.10
16999;DHT22;10211;49.476;11.010;2023-05-29T15:13:18;28.80;40.20
16999;DHT22;10211;49.476;11.010;2023-05-29T15:15:45;28.80;39.60
16999;DHT22;10211;49.476;11.010;2023-05-29T15:18:13;28.90;40.20
16999;DHT22;10211;49.476;11.010;2023-05-29T15:20:40;28.90;39.90